sensor_id;sensor_type;location;lat;lon;timestamp;temperature;humidity
43999;DHT22;51319;52.162;5.302;2022-08-19T00:01:24;17.70;92.10
43999;DHT22;51319;52.162;5.302;2022-08-19T00:04:02;17.70;92.00
43999;DHT22;51319;52.162;5.302;2022-08-19T00:06:29;17.60;92.00
43999;DHT22;51319;52.162;5.302;2022-08-19T00:08:57;17.60;92.10
43999;DHT22;51319;52.162;5.302;2022-08-19T00:11:23;17.60;92.20
43999;DHT22;51319;52.162;5.302;2022-08-19T00:13:55;17.60;92.40
43999;DHT22;51319;52.162;5.302;2022-08-19T00:16:24;17.60;92.40
43999;DHT22;51319;52.162;5.302;2022-08-19T00:18:53;17.60;92.40
43999;DHT22;51319;52.162;5.302;2022-08-19T00:21:22;17.60;92.50
43999;DHT22;51319;52.162;5.302;2022-08-19T00:23:48;17.50;92.50
43999;DHT22;51319;52.162;5.302;2022-08-19T00:26:16;17.50;92.50
43999;DHT22;51319;52.162;5.302;2022-08-19T00:28:42;17.50;92.50
43999;DHT22;51319;52.162;5.302;2022-08-19T00:31:08;17.50;92.50
43999;DHT22;51319;52.162;5.302;2022-08-19T00:33:35;17.50;92.50
43999;DHT22;51319;52.162;5.302;2022-08-19T00:36:05;17.40;92.40
43999;DHT22;51319;52.162;5.302;2022-08-19T00:38:33;17.40;92.50
43999;DHT22;51319;52.162;5.302;2022-08-19T00:41:05;17.40;92.50
43999;DHT22;51319;52.162;5.302;2022-08-19T00:43:32;17.40;92.40
43999;DHT22;51319;52.162;5.302;2022-08-19T00:45:58;17.40;92.40
43999;DHT22;51319;52.162;5.302;2022-08-19T00:48:24;17.40;92.40
43999;DHT22;51319;52.162;5.302;2022-08-19T00:50:52;17.30;92.40
43999;DHT22;51319;52.162;5.302;2022-08-19T00:53:22;17.30;92.40
43999;DHT22;51319;52.162;5.302;2022-08-19T00:55:51;17.30;92.40
43999;DHT22;51319;52.162;5.302;2022-08-19T00:58:21;17.30;92.40
43999;DHT22;51319;52.162;5.302;2022-08-19T01:00:48;17.20;92.40
43999;DHT22;51319;52.162;5.302;2022-08-19T01:03:17;17.20;92.40
43999;DHT22;51319;52.162;5.302;2022-08-19T01:05:45;17.20;92.40
43999;DHT22;51319;52.162;5.302;2022-08-19T01:08:14;17.20;92.80
43999;DHT22;51319;52.162;5.302;2022-08-19T01:10:44;17.10;92.50
43999;DHT22;51319;52.162;5.302;2022-08-19T01:13:14;17.10;92.50
43999;DHT22;51319;52.162;5.302;2022-08-19T01:15:48;17.10;92.50
43999;DHT22;51319;52.162;5.302;2022-08-19T01:18:17;17.00;92.50
43999;DHT22;51319;52.162;5.302;2022-08-19T01:20:44;17.00;92.40
43999;DHT22;51319;52.162;5.302;2022-08-19T01:23:10;17.00;92.40
43999;DHT22;51319;52.162;5.302;2022-08-19T01:25:46;16.90;92.50
43999;DHT22;51319;52.162;5.302;2022-08-19T01:28:21;16.90;92.60
43999;DHT22;51319;52.162;5.302;2022-08-19T01:31:06;16.90;92.60
43999;DHT22;51319;52.162;5.302;2022-08-19T01:33:34;16.90;92.60
43999;DHT22;51319;52.162;5.302;2022-08-19T01:36:14;16.90;92.50
43999;DHT22;51319;52.162;5.302;2022-08-19T01:38:42;16.80;92.50
43999;DHT22;51319;52.162;5.302;2022-08-19T01:41:11;16.80;92.60
43999;DHT22;51319;52.162;5.302;2022-08-19T01:43:38;16.70;92.70
43999;DHT22;51319;52.162;5.302;2022-08-19T01:46:24;16.70;92.70
43999;DHT22;51319;52.162;5.302;2022-08-19T01:48:50;16.70;92.70
43999;DHT22;51319;52.162;5.302;2022-08-19T01:51:16;16.70;92.70
43999;DHT22;51319;52.162;5.302;2022-08-19T01:53:47;16.60;92.60
43999;DHT22;51319;52.162;5.302;2022-08-19T01:56:14;16.60;92.60
43999;DHT22;51319;52.162;5.302;2022-08-19T01:58:48;16.50;92.60
43999;DHT22;51319;52.162;5.302;2022-08-19T02:01:17;16.50;92.80
43999;DHT22;51319;52.162;5.302;2022-08-19T02:03:45;16.50;92.90
43999;DHT22;51319;52.162;5.302;2022-08-19T02:06:11;16.50;93.00
43999;DHT22;51319;52.162;5.302;2022-08-19T02:08:39;16.50;93.00
43999;DHT22;51319;52.162;5.302;2022-08-19T02:11:06;16.50;93.00
43999;DHT22;51319;52.162;5.302;2022-08-19T02:13:35;16.50;93.00
43999;DHT22;51319;52.162;5.302;2022-08-19T02:16:03;16.50;93.00
43999;DHT22;51319;52.162;5.302;2022-08-19T02:18:30;16.50;92.90
43999;DHT22;51319;52.162;5.302;2022-08-19T02:20:56;16.40;92.80
43999;DHT22;51319;52.162;5.302;2022-08-19T02:23:22;16.30;92.80
43999;DHT22;51319;52.162;5.302;2022-08-19T02:25:48;16.30;92.80
43999;DHT22;51319;52.162;5.302;2022-08-19T02:28:15;16.30;92.90
43999;DHT22;51319;52.162;5.302;2022-08-19T02:30:46;16.30;93.00
43999;DHT22;51319;52.162;5.302;2022-08-19T02:33:13;16.30;93.10
43999;DHT22;51319;52.162;5.302;2022-08-19T02:35:46;16.20;93.00
43999;DHT22;51319;52.162;5.302;2022-08-19T02:38:13;16.20;93.10
43999;DHT22;51319;52.162;5.302;2022-08-19T02:41:01;16.20;93.10
43999;DHT22;51319;52.162;5.302;2022-08-19T02:43:29;16.20;93.20
43999;DHT22;51319;52.162;5.302;2022-08-19T02:45:59;16.20;93.10
43999;DHT22;51319;52.162;5.302;2022-08-19T02:48:26;16.20;93.20
43999;DHT22;51319;52.162;5.302;2022-08-19T02:50:52;16.20;93.30
43999;DHT22;51319;52.162;5.302;2022-08-19T02:53:26;16.20;93.40
43999;DHT22;51319;52.162;5.302;2022-08-19T02:55:53;16.20;93.50
43999;DHT22;51319;52.162;5.302;2022-08-19T02:58:21;16.10;93.50
43999;DHT22;51319;52.162;5.302;2022-08-19T03:00:51;16.00;93.50
43999;DHT22;51319;52.162;5.302;2022-08-19T03:03:19;16.00;93.60
43999;DHT22;51319;52.162;5.302;2022-08-19T03:05:45;16.00;93.80
43999;DHT22;51319;52.162;5.302;2022-08-19T03:08:22;15.90;93.80
43999;DHT22;51319;52.162;5.302;2022-08-19T03:10:51;15.90;93.90
43999;DHT22;51319;52.162;5.302;2022-08-19T03:13:18;15.90;94.10
43999;DHT22;51319;52.162;5.302;2022-08-19T03:15:46;16.00;94.20
43999;DHT22;51319;52.162;5.302;2022-08-19T03:18:14;16.00;94.10
43999;DHT22;51319;52.162;5.302;2022-08-19T03:20:47;16.00;94.20
43999;DHT22;51319;52.162;5.302;2022-08-19T03:23:14;15.90;94.20
43999;DHT22;51319;52.162;5.302;2022-08-19T03:25:48;15.90;94.20
43999;DHT22;51319;52.162;5.302;2022-08-19T03:28:35;15.90;94.30
43999;DHT22;51319;52.162;5.302;2022-08-19T03:31:10;15.90;94.40
43999;DHT22;51319;52.162;5.302;2022-08-19T03:33:56;15.90;94.40
43999;DHT22;51319;52.162;5.302;2022-08-19T03:36:25;16.00;94.40
43999;DHT22;51319;52.162;5.302;2022-08-19T03:38:57;16.00;94.30
43999;DHT22;51319;52.162;5.302;2022-08-19T03:41:30;16.00;94.30
43999;DHT22;51319;52.162;5.302;2022-08-19T03:44:11;16.00;94.30
43999;DHT22;51319;52.162;5.302;2022-08-19T03:46:45;16.00;94.40
43999;DHT22;51319;52.162;5.302;2022-08-19T03:49:12;16.00;94.30
43999;DHT22;51319;52.162;5.302;2022-08-19T03:51:41;16.00;94.30
43999;DHT22;51319;52.162;5.302;2022-08-19T03:54:10;16.00;94.20
43999;DHT22;51319;52.162;5.302;2022-08-19T03:56:38;16.00;94.10
43999;DHT22;51319;52.162;5.302;2022-08-19T03:59:09;16.00;94.20
43999;DHT22;51319;52.162;5.302;2022-08-19T04:01:37;15.90;94.10
43999;DHT22;51319;52.162;5.302;2022-08-19T04:04:07;15.90;94.10
43999;DHT22;51319;52.162;5.302;2022-08-19T04:06:36;15.80;94.10
43999;DHT22;51319;52.162;5.302;2022-08-19T04:09:07;15.80;94.20
43999;DHT22;51319;52.162;5.302;2022-08-19T04:11:47;15.80;94.30
43999;DHT22;51319;52.162;5.302;2022-08-19T04:14:20;15.80;94.30
43999;DHT22;51319;52.162;5.302;2022-08-19T04:16:48;15.80;94.30
43999;DHT22;51319;52.162;5.302;2022-08-19T04:19:16;15.80;94.30
43999;DHT22;51319;52.162;5.302;2022-08-19T04:21:48;15.80;94.10
43999;DHT22;51319;52.162;5.302;2022-08-19T04:24:15;15.70;94.00
43999;DHT22;51319;52.162;5.302;2022-08-19T04:26:42;15.70;94.00
43999;DHT22;51319;52.162;5.302;2022-08-19T04:29:11;15.60;93.90
43999;DHT22;51319;52.162;5.302;2022-08-19T04:31:39;15.60;93.90
43999;DHT22;51319;52.162;5.302;2022-08-19T04:34:08;15.60;93.90
43999;DHT22;51319;52.162;5.302;2022-08-19T04:36:39;15.60;94.00
43999;DHT22;51319;52.162;5.302;2022-08-19T04:39:09;15.60;94.10
43999;DHT22;51319;52.162;5.302;2022-08-19T04:41:36;15.60;94.10
43999;DHT22;51319;52.162;5.302;2022-08-19T04:44:21;15.60;94.10
43999;DHT22;51319;52.162;5.302;2022-08-19T04:46:49;15.60;94.00
43999;DHT22;51319;52.162;5.302;2022-08-19T04:49:22;15.60;94.10
43999;DHT22;51319;52.162;5.302;2022-08-19T04:51:50;15.60;94.20
43999;DHT22;51319;52.162;5.302;2022-08-19T04:54:18;15.60;94.30
43999;DHT22;51319;52.162;5.302;2022-08-19T04:57:05;15.60;94.20
43999;DHT22;51319;52.162;5.302;2022-08-19T04:59:32;15.60;94.00
43999;DHT22;51319;52.162;5.302;2022-08-19T05:01:59;15.60;94.00
43999;DHT22;51319;52.162;5.302;2022-08-19T05:04:25;15.50;93.90
43999;DHT22;51319;52.162;5.302;2022-08-19T05:06:52;15.50;93.90
43999;DHT22;51319;52.162;5.302;2022-08-19T05:09:27;15.50;94.00
43999;DHT22;51319;52.162;5.302;2022-08-19T05:12:14;15.60;94.10
43999;DHT22;51319;52.162;5.302;2022-08-19T05:14:40;15.70;94.20
43999;DHT22;51319;52.162;5.302;2022-08-19T05:17:06;15.70;94.20
43999;DHT22;51319;52.162;5.302;2022-08-19T05:19:52;15.70;94.20
43999;DHT22;51319;52.162;5.302;2022-08-19T05:22:39;15.80;94.60
43999;DHT22;51319;52.162;5.302;2022-08-19T05:25:10;15.90;94.30
43999;DHT22;51319;52.162;5.302;2022-08-19T05:27:40;16.00;94.30
43999;DHT22;51319;52.162;5.302;2022-08-19T05:30:08;16.10;94.20
43999;DHT22;51319;52.162;5.302;2022-08-19T05:32:34;16.20;94.20
43999;DHT22;51319;52.162;5.302;2022-08-19T05:35:00;16.20;94.30
43999;DHT22;51319;52.162;5.302;2022-08-19T05:37:27;16.30;94.40
43999;DHT22;51319;52.162;5.302;2022-08-19T05:39:55;16.40;94.40
43999;DHT22;51319;52.162;5.302;2022-08-19T05:42:22;16.50;94.40
43999;DHT22;51319;52.162;5.302;2022-08-19T05:44:49;16.60;94.30
43999;DHT22;51319;52.162;5.302;2022-08-19T05:47:18;16.70;94.40
43999;DHT22;51319;52.162;5.302;2022-08-19T05:49:46;16.90;94.50
43999;DHT22;51319;52.162;5.302;2022-08-19T05:52:13;17.10;94.50
43999;DHT22;51319;52.162;5.302;2022-08-19T05:54:44;17.30;94.60
43999;DHT22;51319;52.162;5.302;2022-08-19T05:57:17;17.50;94.40
43999;DHT22;51319;52.162;5.302;2022-08-19T05:59:44;17.70;94.30
43999;DHT22;51319;52.162;5.302;2022-08-19T06:02:14;18.10;94.20
43999;DHT22;51319;52.162;5.302;2022-08-19T06:04:41;18.40;93.80
43999;DHT22;51319;52.162;5.302;2022-08-19T06:07:10;18.70;93.40
43999;DHT22;51319;52.162;5.302;2022-08-19T06:09:39;19.10;92.90
43999;DHT22;51319;52.162;5.302;2022-08-19T06:12:06;19.40;92.40
43999;DHT22;51319;52.162;5.302;2022-08-19T06:14:35;19.80;91.90
43999;DHT22;51319;52.162;5.302;2022-08-19T06:17:07;20.10;91.30
43999;DHT22;51319;52.162;5.302;2022-08-19T06:19:34;20.50;90.70
43999;DHT22;51319;52.162;5.302;2022-08-19T06:22:07;20.70;90.20
43999;DHT22;51319;52.162;5.302;2022-08-19T06:24:34;21.00;89.60
43999;DHT22;51319;52.162;5.302;2022-08-19T06:27:01;21.20;88.80
43999;DHT22;51319;52.162;5.302;2022-08-19T06:29:28;21.40;88.30
43999;DHT22;51319;52.162;5.302;2022-08-19T06:31:58;21.70;87.40
43999;DHT22;51319;52.162;5.302;2022-08-19T06:34:27;21.60;86.60
43999;DHT22;51319;52.162;5.302;2022-08-19T06:36:54;21.40;86.90
43999;DHT22;51319;52.162;5.302;2022-08-19T06:39:25;21.30;87.20
43999;DHT22;51319;52.162;5.302;2022-08-19T06:41:54;21.10;87.70
43999;DHT22;51319;52.162;5.302;2022-08-19T06:44:26;21.00;88.10
43999;DHT22;51319;52.162;5.302;2022-08-19T06:46:53;20.90;88.70
43999;DHT22;51319;52.162;5.302;2022-08-19T06:49:21;20.80;89.00
43999;DHT22;51319;52.162;5.302;2022-08-19T06:51:48;20.80;89.20
43999;DHT22;51319;52.162;5.302;2022-08-19T06:54:18;20.80;89.40
43999;DHT22;51319;52.162;5.302;2022-08-19T06:56:46;20.80;89.60
43999;DHT22;51319;52.162;5.302;2022-08-19T06:59:15;20.80;89.70
43999;DHT22;51319;52.162;5.302;2022-08-19T07:01:53;20.80;89.80
43999;DHT22;51319;52.162;5.302;2022-08-19T07:04:22;20.90;89.90
43999;DHT22;51319;52.162;5.302;2022-08-19T07:06:56;20.90;89.70
43999;DHT22;51319;52.162;5.302;2022-08-19T07:09:24;21.00;89.20
43999;DHT22;51319;52.162;5.302;2022-08-19T07:11:52;21.10;88.90
43999;DHT22;51319;52.162;5.302;2022-08-19T07:14:22;21.10;88.70
43999;DHT22;51319;52.162;5.302;2022-08-19T07:16:52;21.20;88.40
43999;DHT22;51319;52.162;5.302;2022-08-19T07:19:19;21.30;87.90
43999;DHT22;51319;52.162;5.302;2022-08-19T07:21:50;21.30;87.90
43999;DHT22;51319;52.162;5.302;2022-08-19T07:24:22;21.30;87.10
43999;DHT22;51319;52.162;5.302;2022-08-19T07:26:51;21.30;87.10
43999;DHT22;51319;52.162;5.302;2022-08-19T07:29:19;21.30;87.30
43999;DHT22;51319;52.162;5.302;2022-08-19T07:31:51;21.30;87.30
43999;DHT22;51319;52.162;5.302;2022-08-19T07:34:19;21.30;87.30
43999;DHT22;51319;52.162;5.302;2022-08-19T07:36:45;21.40;87.10
43999;DHT22;51319;52.162;5.302;2022-08-19T07:39:16;21.40;86.70
43999;DHT22;51319;52.162;5.302;2022-08-19T07:41:42;21.40;86.50
43999;DHT22;51319;52.162;5.302;2022-08-19T07:44:11;21.50;86.60
43999;DHT22;51319;52.162;5.302;2022-08-19T07:46:41;21.50;86.30
43999;DHT22;51319;52.162;5.302;2022-08-19T07:49:08;21.50;85.90
43999;DHT22;51319;52.162;5.302;2022-08-19T07:51:39;21.50;85.70
43999;DHT22;51319;52.162;5.302;2022-08-19T07:54:05;21.50;85.60
43999;DHT22;51319;52.162;5.302;2022-08-19T07:56:31;21.40;85.60
43999;DHT22;51319;52.162;5.302;2022-08-19T07:58:58;21.40;85.90
43999;DHT22;51319;52.162;5.302;2022-08-19T08:01:25;21.40;85.70
43999;DHT22;51319;52.162;5.302;2022-08-19T08:03:53;21.40;86.30
43999;DHT22;51319;52.162;5.302;2022-08-19T08:06:38;21.40;85.60
43999;DHT22;51319;52.162;5.302;2022-08-19T08:09:26;21.60;85.80
43999;DHT22;51319;52.162;5.302;2022-08-19T08:11:57;21.80;85.20
43999;DHT22;51319;52.162;5.302;2022-08-19T08:14:34;22.00;84.40
43999;DHT22;51319;52.162;5.302;2022-08-19T08:17:02;22.80;83.70
43999;DHT22;51319;52.162;5.302;2022-08-19T08:19:37;23.50;81.20
43999;DHT22;51319;52.162;5.302;2022-08-19T08:22:03;24.00;78.70
43999;DHT22;51319;52.162;5.302;2022-08-19T08:24:32;24.00;76.80
43999;DHT22;51319;52.162;5.302;2022-08-19T08:27:00;23.90;76.20
43999;DHT22;51319;52.162;5.302;2022-08-19T08:29:28;25.10;75.40
43999;DHT22;51319;52.162;5.302;2022-08-19T08:32:01;26.00;71.40
43999;DHT22;51319;52.162;5.302;2022-08-19T08:34:28;26.90;67.60
43999;DHT22;51319;52.162;5.302;2022-08-19T08:36:54;27.00;65.80
43999;DHT22;51319;52.162;5.302;2022-08-19T08:39:21;27.10;66.20
43999;DHT22;51319;52.162;5.302;2022-08-19T08:44:59;27.60;63.30
43999;DHT22;51319;52.162;5.302;2022-08-19T08:47:34;27.90;62.00
43999;DHT22;51319;52.162;5.302;2022-08-19T08:50:05;28.80;61.50
43999;DHT22;51319;52.162;5.302;2022-08-19T08:52:36;29.70;58.70
43999;DHT22;51319;52.162;5.302;2022-08-19T08:55:18;30.80;56.40
43999;DHT22;51319;52.162;5.302;2022-08-19T09:00:18;32.60;52.10
43999;DHT22;51319;52.162;5.302;2022-08-19T09:02:45;33.40;50.30
43999;DHT22;51319;52.162;5.302;2022-08-19T09:05:17;34.20;51.30
43999;DHT22;51319;52.162;5.302;2022-08-19T09:08:02;34.70;47.20
43999;DHT22;51319;52.162;5.302;2022-08-19T09:10:43;34.50;46.60
43999;DHT22;51319;52.162;5.302;2022-08-19T09:13:44;33.70;47.30
43999;DHT22;51319;52.162;5.302;2022-08-19T09:16:18;32.50;47.70
43999;DHT22;51319;52.162;5.302;2022-08-19T09:18:52;31.20;50.30
43999;DHT22;51319;52.162;5.302;2022-08-19T09:21:21;30.30;52.00
43999;DHT22;51319;52.162;5.302;2022-08-19T09:24:01;30.00;53.30
43999;DHT22;51319;52.162;5.302;2022-08-19T09:26:29;29.60;54.00
43999;DHT22;51319;52.162;5.302;2022-08-19T09:29:14;29.30;55.10
43999;DHT22;51319;52.162;5.302;2022-08-19T09:31:43;29.60;54.30
43999;DHT22;51319;52.162;5.302;2022-08-19T09:34:10;29.30;54.50
43999;DHT22;51319;52.162;5.302;2022-08-19T09:36:48;29.70;55.40
43999;DHT22;51319;52.162;5.302;2022-08-19T09:39:21;31.50;52.90
43999;DHT22;51319;52.162;5.302;2022-08-19T09:41:47;31.50;50.70
43999;DHT22;51319;52.162;5.302;2022-08-19T09:44:16;31.00;50.90
43999;DHT22;51319;52.162;5.302;2022-08-19T09:46:43;30.70;51.40
43999;DHT22;51319;52.162;5.302;2022-08-19T09:49:10;31.00;51.20
43999;DHT22;51319;52.162;5.302;2022-08-19T09:51:38;30.70;51.00
43999;DHT22;51319;52.162;5.302;2022-08-19T09:54:05;30.20;52.00
43999;DHT22;51319;52.162;5.302;2022-08-19T09:56:32;30.50;52.60
43999;DHT22;51319;52.162;5.302;2022-08-19T09:59:00;31.30;51.00
43999;DHT22;51319;52.162;5.302;2022-08-19T10:01:29;30.90;49.70
43999;DHT22;51319;52.162;5.302;2022-08-19T10:03:59;30.50;51.50
43999;DHT22;51319;52.162;5.302;2022-08-19T10:06:28;30.10;51.70
43999;DHT22;51319;52.162;5.302;2022-08-19T10:09:12;29.90;52.90
43999;DHT22;51319;52.162;5.302;2022-08-19T10:11:40;29.90;53.20
43999;DHT22;51319;52.162;5.302;2022-08-19T10:14:18;30.80;52.00
43999;DHT22;51319;52.162;5.302;2022-08-19T10:16:48;31.40;51.00
43999;DHT22;51319;52.162;5.302;2022-08-19T10:19:15;31.40;49.70
43999;DHT22;51319;52.162;5.302;2022-08-19T10:21:51;31.20;50.80
43999;DHT22;51319;52.162;5.302;2022-08-19T10:24:18;31.10;50.60
43999;DHT22;51319;52.162;5.302;2022-08-19T10:26:46;31.70;50.70
43999;DHT22;51319;52.162;5.302;2022-08-19T10:29:23;33.00;48.80
43999;DHT22;51319;52.162;5.302;2022-08-19T10:32:03;33.50;46.80
43999;DHT22;51319;52.162;5.302;2022-08-19T10:34:40;32.90;47.80
43999;DHT22;51319;52.162;5.302;2022-08-19T10:37:15;33.30;47.50
43999;DHT22;51319;52.162;5.302;2022-08-19T10:39:54;34.60;46.20
43999;DHT22;51319;52.162;5.302;2022-08-19T10:42:21;35.90;44.20
43999;DHT22;51319;52.162;5.302;2022-08-19T10:44:48;36.20;42.70
43999;DHT22;51319;52.162;5.302;2022-08-19T10:47:17;35.80;42.90
43999;DHT22;51319;52.162;5.302;2022-08-19T10:49:52;36.60;42.40
43999;DHT22;51319;52.162;5.302;2022-08-19T10:52:42;37.20;41.10
43999;DHT22;51319;52.162;5.302;2022-08-19T10:55:20;36.30;41.80
43999;DHT22;51319;52.162;5.302;2022-08-19T10:58:16;35.40;43.30
43999;DHT22;51319;52.162;5.302;2022-08-19T11:00:43;35.20;44.00
43999;DHT22;51319;52.162;5.302;2022-08-19T11:03:16;35.30;43.80
43999;DHT22;51319;52.162;5.302;2022-08-19T11:05:44;36.30;43.40
43999;DHT22;51319;52.162;5.302;2022-08-19T11:08:11;37.40;41.90
43999;DHT22;51319;52.162;5.302;2022-08-19T11:10:53;38.20;39.90
43999;DHT22;51319;52.162;5.302;2022-08-19T11:13:23;37.70;39.60
43999;DHT22;51319;52.162;5.302;2022-08-19T11:15:57;38.30;40.20
43999;DHT22;51319;52.162;5.302;2022-08-19T11:18:23;39.30;39.30
43999;DHT22;51319;52.162;5.302;2022-08-19T11:20:50;39.60;39.00
43999;DHT22;51319;52.162;5.302;2022-08-19T11:23:16;39.20;38.30
43999;DHT22;51319;52.162;5.302;2022-08-19T11:25:42;38.70;38.70
43999;DHT22;51319;52.162;5.302;2022-08-19T11:28:09;38.20;39.30
43999;DHT22;51319;52.162;5.302;2022-08-19T11:30:37;37.00;40.20
43999;DHT22;51319;52.162;5.302;2022-08-19T11:33:03;36.90;41.20
43999;DHT22;51319;52.162;5.302;2022-08-19T11:35:30;37.20;40.60
43999;DHT22;51319;52.162;5.302;2022-08-19T11:37:56;36.70;40.80
43999;DHT22;51319;52.162;5.302;2022-08-19T11:40:27;37.10;41.40
43999;DHT22;51319;52.162;5.302;2022-08-19T11:42:53;37.00;40.90
43999;DHT22;51319;52.162;5.302;2022-08-19T11:45:28;36.20;41.90
43999;DHT22;51319;52.162;5.302;2022-08-19T11:47:59;35.40;43.10
43999;DHT22;51319;52.162;5.302;2022-08-19T11:50:26;34.50;44.30
43999;DHT22;51319;52.162;5.302;2022-08-19T11:52:57;33.80;45.90
43999;DHT22;51319;52.162;5.302;2022-08-19T11:55:24;33.00;46.40
43999;DHT22;51319;52.162;5.302;2022-08-19T11:57:50;32.30;47.80
43999;DHT22;51319;52.162;5.302;2022-08-19T12:00:16;31.60;49.10
43999;DHT22;51319;52.162;5.302;2022-08-19T12:02:43;31.10;50.10
43999;DHT22;51319;52.162;5.302;2022-08-19T12:05:12;30.50;51.10
43999;DHT22;51319;52.162;5.302;2022-08-19T12:07:40;30.00;53.10
43999;DHT22;51319;52.162;5.302;2022-08-19T12:10:07;29.50;54.40
43999;DHT22;51319;52.162;5.302;2022-08-19T12:12:38;29.00;56.40
43999;DHT22;51319;52.162;5.302;2022-08-19T12:15:25;28.70;58.30
43999;DHT22;51319;52.162;5.302;2022-08-19T12:17:53;28.30;60.90
43999;DHT22;51319;52.162;5.302;2022-08-19T12:20:23;27.50;62.90
43999;DHT22;51319;52.162;5.302;2022-08-19T12:22:50;27.00;65.00
43999;DHT22;51319;52.162;5.302;2022-08-19T12:25:18;26.30;66.80
43999;DHT22;51319;52.162;5.302;2022-08-19T12:27:47;25.60;69.00
43999;DHT22;51319;52.162;5.302;2022-08-19T12:30:23;25.10;70.80
43999;DHT22;51319;52.162;5.302;2022-08-19T12:32:51;24.60;72.80
43999;DHT22;51319;52.162;5.302;2022-08-19T12:35:19;24.40;74.60
43999;DHT22;51319;52.162;5.302;2022-08-19T12:37:48;24.20;75.70
43999;DHT22;51319;52.162;5.302;2022-08-19T12:40:23;24.20;76.70
43999;DHT22;51319;52.162;5.302;2022-08-19T12:42:52;24.50;77.70
43999;DHT22;51319;52.162;5.302;2022-08-19T12:45:19;25.20;77.60
43999;DHT22;51319;52.162;5.302;2022-08-19T12:47:46;26.00;76.10
43999;DHT22;51319;52.162;5.302;2022-08-19T12:50:15;26.40;73.40
43999;DHT22;51319;52.162;5.302;2022-08-19T12:52:41;26.40;72.10
43999;DHT22;51319;52.162;5.302;2022-08-19T12:55:09;26.40;72.40
43999;DHT22;51319;52.162;5.302;2022-08-19T12:57:37;26.40;72.90
43999;DHT22;51319;52.162;5.302;2022-08-19T13:00:10;26.30;73.20
43999;DHT22;51319;52.162;5.302;2022-08-19T13:02:41;26.10;74.40
43999;DHT22;51319;52.162;5.302;2022-08-19T13:05:10;26.00;74.40
43999;DHT22;51319;52.162;5.302;2022-08-19T13:07:40;26.00;75.40
43999;DHT22;51319;52.162;5.302;2022-08-19T13:10:08;25.90;75.70
43999;DHT22;51319;52.162;5.302;2022-08-19T13:12:35;25.90;76.10
43999;DHT22;51319;52.162;5.302;2022-08-19T13:15:01;25.90;76.40
43999;DHT22;51319;52.162;5.302;2022-08-19T13:17:28;25.90;76.80
43999;DHT22;51319;52.162;5.302;2022-08-19T13:19:54;25.80;77.30
43999;DHT22;51319;52.162;5.302;2022-08-19T13:22:21;25.80;77.50
43999;DHT22;51319;52.162;5.302;2022-08-19T13:24:47;25.80;77.60
43999;DHT22;51319;52.162;5.302;2022-08-19T13:27:14;25.90;78.50
43999;DHT22;51319;52.162;5.302;2022-08-19T13:29:41;26.00;77.30
43999;DHT22;51319;52.162;5.302;2022-08-19T13:32:26;26.00;76.90
43999;DHT22;51319;52.162;5.302;2022-08-19T13:35:15;26.00;76.70
43999;DHT22;51319;52.162;5.302;2022-08-19T13:37:43;26.00;76.40
43999;DHT22;51319;52.162;5.302;2022-08-19T13:40:15;26.10;77.10
43999;DHT22;51319;52.162;5.302;2022-08-19T13:42:49;26.20;77.20
43999;DHT22;51319;52.162;5.302;2022-08-19T13:45:19;26.20;77.40
43999;DHT22;51319;52.162;5.302;2022-08-19T13:47:48;26.40;76.90
43999;DHT22;51319;52.162;5.302;2022-08-19T13:50:19;26.30;76.40
43999;DHT22;51319;52.162;5.302;2022-08-19T13:52:46;26.20;76.60
43999;DHT22;51319;52.162;5.302;2022-08-19T13:55:14;26.20;77.00
43999;DHT22;51319;52.162;5.302;2022-08-19T13:57:52;26.10;77.10
43999;DHT22;51319;52.162;5.302;2022-08-19T14:00:19;26.00;76.70
43999;DHT22;51319;52.162;5.302;2022-08-19T14:02:46;26.00;76.90
43999;DHT22;51319;52.162;5.302;2022-08-19T14:05:15;26.20;77.20
43999;DHT22;51319;52.162;5.302;2022-08-19T14:07:41;26.40;77.70
43999;DHT22;51319;52.162;5.302;2022-08-19T14:10:09;26.70;77.30
43999;DHT22;51319;52.162;5.302;2022-08-19T14:12:37;27.00;76.50
43999;DHT22;51319;52.162;5.302;2022-08-19T14:15:05;27.10;75.80
43999;DHT22;51319;52.162;5.302;2022-08-19T14:17:31;27.20;75.70
43999;DHT22;51319;52.162;5.302;2022-08-19T14:20:03;27.30;75.30
43999;DHT22;51319;52.162;5.302;2022-08-19T14:22:39;27.40;74.50
43999;DHT22;51319;52.162;5.302;2022-08-19T14:25:09;27.50;74.10
43999;DHT22;51319;52.162;5.302;2022-08-19T14:27:37;27.60;72.70
43999;DHT22;51319;52.162;5.302;2022-08-19T14:30:06;27.50;73.00
43999;DHT22;51319;52.162;5.302;2022-08-19T14:32:33;27.40;71.60
43999;DHT22;51319;52.162;5.302;2022-08-19T14:35:01;27.30;72.90
43999;DHT22;51319;52.162;5.302;2022-08-19T14:37:28;27.10;73.90
43999;DHT22;51319;52.162;5.302;2022-08-19T14:39:55;26.90;74.00
43999;DHT22;51319;52.162;5.302;2022-08-19T14:42:21;26.60;74.00
43999;DHT22;51319;52.162;5.302;2022-08-19T14:44:47;26.40;74.70
43999;DHT22;51319;52.162;5.302;2022-08-19T14:47:15;26.20;75.00
43999;DHT22;51319;52.162;5.302;2022-08-19T14:49:42;26.10;76.70
43999;DHT22;51319;52.162;5.302;2022-08-19T14:52:14;26.00;76.60
43999;DHT22;51319;52.162;5.302;2022-08-19T14:54:40;26.00;76.90
43999;DHT22;51319;52.162;5.302;2022-08-19T14:57:06;26.00;77.20
43999;DHT22;51319;52.162;5.302;2022-08-19T14:59:35;26.00;77.50
43999;DHT22;51319;52.162;5.302;2022-08-19T15:02:01;26.10;77.60
43999;DHT22;51319;52.162;5.302;2022-08-19T15:04:48;26.20;78.20
43999;DHT22;51319;52.162;5.302;2022-08-19T15:07:24;26.40;77.60
43999;DHT22;51319;52.162;5.302;2022-08-19T15:09:56;26.60;77.20
43999;DHT22;51319;52.162;5.302;2022-08-19T15:12:23;26.60;76.90
43999;DHT22;51319;52.162;5.302;2022-08-19T15:14:50;26.60;77.80
43999;DHT22;51319;52.162;5.302;2022-08-19T15:17:18;26.70;77.30
43999;DHT22;51319;52.162;5.302;2022-08-19T15:19:45;26.80;76.40
43999;DHT22;51319;52.162;5.302;2022-08-19T15:22:11;26.90;76.20
43999;DHT22;51319;52.162;5.302;2022-08-19T15:24:38;27.10;75.80
43999;DHT22;51319;52.162;5.302;2022-08-19T15:27:13;27.20;74.60
43999;DHT22;51319;52.162;5.302;2022-08-19T15:29:40;27.20;73.40
43999;DHT22;51319;52.162;5.302;2022-08-19T15:32:07;27.20;72.70
43999;DHT22;51319;52.162;5.302;2022-08-19T15:34:35;27.10;72.70
43999;DHT22;51319;52.162;5.302;2022-08-19T15:37:01;26.90;73.50
43999;DHT22;51319;52.162;5.302;2022-08-19T15:39:29;26.90;74.70
43999;DHT22;51319;52.162;5.302;2022-08-19T15:41:56;26.70;74.00
43999;DHT22;51319;52.162;5.302;2022-08-19T15:44:26;26.50;74.30
43999;DHT22;51319;52.162;5.302;2022-08-19T15:46:52;26.20;74.30
43999;DHT22;51319;52.162;5.302;2022-08-19T15:49:18;26.00;75.00
43999;DHT22;51319;52.162;5.302;2022-08-19T15:51:47;25.80;75.50
43999;DHT22;51319;52.162;5.302;2022-08-19T15:54:17;25.60;76.00